createdAt,value
2022-08-24T00:01:06.429Z,43.13
2022-08-24T00:06:12.187Z,43.46
2022-08-24T00:11:13.852Z,43.46
2022-08-24T00:16:16.534Z,43.79
2022-08-24T00:21:19.403Z,43.72
2022-08-24T00:26:28.962Z,43.79
2022-08-24T00:31:31.128Z,44.14
2022-08-24T00:36:34.059Z,44.15
2022-08-24T00:41:39.695Z,44.15
2022-08-24T00:46:59.056Z,44.30
2022-08-24T00:52:12.752Z,44.26
2022-08-24T00:57:19.269Z,44.47
2022-08-24T01:02:26.482Z,44.63
2022-08-24T01:07:30.972Z,44.70
2022-08-24T01:12:34.533Z,45.00
2022-08-24T01:17:55.748Z,44.99
2022-08-24T01:23:36.666Z,44.71
2022-08-24T01:28:41.140Z,45.32
2022-08-24T01:33:43.183Z,45.30
2022-08-24T01:38:46.645Z,45.24
2022-08-24T01:43:48.320Z,45.26
2022-08-24T01:48:50.102Z,45.42
2022-08-24T01:53:51.867Z,45.43
2022-08-24T01:58:54.097Z,45.02
2022-08-24T02:03:58.697Z,44.84
2022-08-24T02:09:01.266Z,45.17
2022-08-24T02:14:04.079Z,45.48
2022-08-24T02:19:08.824Z,46.08
2022-08-24T02:24:10.766Z,46.00
2022-08-24T02:29:12.928Z,46.39
2022-08-24T02:34:14.718Z,46.49
2022-08-24T02:39:16.453Z,46.43
2022-08-24T02:44:21.501Z,46.54
2022-08-24T02:49:24.026Z,46.59
2022-08-24T02:54:25.977Z,46.77
2022-08-24T02:59:27.693Z,46.61
2022-08-24T03:04:29.850Z,46.56
2022-08-24T03:09:31.609Z,46.65
2022-08-24T03:14:35.612Z,46.67
2022-08-24T03:19:37.438Z,47.09
2022-08-24T03:24:41.306Z,47.07
2022-08-24T03:29:43.069Z,47.30
2022-08-24T03:34:45.893Z,46.96
2022-08-24T03:39:48.318Z,47.30
2022-08-24T03:44:50.114Z,47.25
2022-08-24T03:49:53.802Z,47.76
2022-08-24T03:54:55.695Z,47.92
2022-08-24T03:59:57.709Z,47.40
2022-08-24T04:04:59.638Z,47.77
2022-08-24T04:10:01.848Z,47.51
2022-08-24T04:15:05.133Z,47.63
2022-08-24T04:20:07.894Z,47.38
2022-08-24T04:25:13.591Z,47.59
2022-08-24T04:30:15.278Z,48.10
2022-08-24T04:35:41.201Z,48.04
2022-08-24T04:40:45.379Z,48.05
2022-08-24T04:45:50.540Z,48.36
2022-08-24T04:50:53.760Z,48.39
2022-08-24T04:55:55.444Z,48.59
2022-08-24T05:00:57.422Z,48.62
2022-08-24T05:05:59.761Z,48.91
2022-08-24T05:11:07.492Z,48.80
2022-08-24T05:16:12.773Z,49.34
2022-08-24T05:21:19.324Z,49.28
2022-08-24T05:26:26.322Z,49.22
2022-08-24T05:31:31.499Z,49.68
2022-08-24T05:36:38.811Z,49.68
2022-08-24T05:41:44.595Z,49.55
2022-08-24T05:46:58.440Z,49.80
2022-08-24T05:52:00.273Z,49.72
2022-08-24T05:57:04.638Z,49.98
2022-08-24T06:02:11.663Z,50.11
2022-08-24T06:07:14.553Z,49.86
2022-08-24T06:12:20.958Z,50.16
2022-08-24T06:17:23.254Z,49.94
2022-08-24T06:22:26.515Z,50.08
2022-08-24T06:27:29.507Z,49.95
2022-08-24T06:32:33.336Z,49.79
2022-08-24T06:37:35.276Z,49.81
2022-08-24T06:42:37.288Z,49.87
2022-08-24T06:47:50.887Z,49.72
2022-08-24T06:52:54.067Z,49.70
2022-08-24T06:57:55.784Z,49.64
2022-08-24T07:02:57.513Z,49.85
2022-08-24T07:07:59.845Z,49.82
2022-08-24T07:13:01.653Z,49.74
2022-08-24T07:18:03.527Z,49.51
2022-08-24T07:23:06.400Z,49.62
2022-08-24T07:28:10.218Z,49.44
2022-08-24T07:33:14.830Z,49.41
2022-08-24T07:38:16.694Z,49.28
2022-08-24T07:43:18.530Z,49.17
2022-08-24T07:48:20.251Z,48.96
2022-08-24T07:53:27.858Z,49.02
2022-08-24T07:58:35.533Z,48.75
2022-08-24T08:03:38.264Z,48.72
2022-08-24T08:08:41.505Z,48.71
2022-08-24T08:18:56.525Z,48.55
2022-08-24T08:24:20.682Z,48.23
2022-08-24T08:29:31.529Z,48.23
2022-08-24T08:34:33.605Z,48.04
2022-08-24T08:39:35.688Z,47.93
2022-08-24T08:45:00.427Z,47.87
2022-08-24T08:50:25.854Z,47.59
2022-08-24T08:55:32.607Z,47.13
2022-08-24T09:00:50.440Z,47.07
2022-08-24T09:06:35.330Z,46.85
2022-08-24T09:11:52.208Z,47.02
2022-08-24T09:17:20.337Z,47.17
2022-08-24T09:22:22.141Z,46.88
2022-08-24T09:27:33.036Z,46.26
2022-08-24T09:33:06.434Z,46.33
2022-08-24T09:38:35.509Z,46.29
2022-08-24T09:43:58.360Z,45.84
2022-08-24T09:49:33.488Z,45.90
2022-08-24T09:55:04.908Z,45.59
2022-08-24T10:00:17.111Z,45.48
2022-08-24T10:05:33.494Z,45.45
2022-08-24T10:10:58.934Z,45.17
2022-08-24T10:16:17.083Z,45.20
2022-08-24T10:21:40.062Z,44.88
2022-08-24T10:26:57.038Z,44.81
2022-08-24T10:32:17.542Z,44.79
2022-08-24T10:38:23.109Z,44.22
2022-08-24T10:43:53.418Z,43.90
2022-08-24T10:49:11.495Z,43.76
2022-08-24T10:54:19.548Z,42.91
2022-08-24T11:00:01.891Z,43.25
2022-08-24T11:05:09.367Z,42.75
2022-08-24T11:10:24.043Z,42.58
2022-08-24T11:15:29.657Z,42.17
2022-08-24T11:20:40.634Z,43.00
2022-08-24T11:25:53.355Z,42.59
2022-08-24T11:30:55.087Z,42.16
2022-08-24T11:35:57.988Z,41.50
2022-08-24T11:41:14.625Z,41.27
2022-08-24T11:46:52.165Z,41.47
2022-08-24T11:52:38.356Z,41.60
2022-08-24T11:57:55.185Z,41.37
2022-08-24T12:03:25.011Z,41.54
2022-08-24T12:08:44.800Z,41.34
2022-08-24T12:13:57.338Z,41.31
2022-08-24T12:19:11.833Z,41.09
2022-08-24T12:24:41.298Z,41.42
2022-08-24T12:29:48.294Z,41.38
2022-08-24T12:35:01.491Z,41.43
2022-08-24T12:40:08.761Z,41.24
2022-08-24T12:45:17.159Z,41.08
2022-08-24T12:50:33.930Z,41.04
2022-08-24T12:56:04.100Z,41.28
2022-08-24T13:01:07.173Z,40.93
2022-08-24T13:06:16.599Z,40.97
2022-08-24T13:11:24.365Z,40.44
2022-08-24T13:16:44.986Z,40.77
2022-08-24T13:21:57.271Z,40.39
2022-08-24T13:27:18.820Z,40.25
2022-08-24T13:32:35.311Z,40.31
2022-08-24T13:37:38.492Z,39.73
2022-08-24T13:42:46.388Z,39.52
2022-08-24T13:48:04.346Z,39.41
2022-08-24T13:53:35.042Z,39.69
2022-08-24T13:58:56.119Z,39.41
2022-08-24T14:04:26.260Z,38.92
2022-08-24T14:10:01.913Z,38.86
2022-08-24T14:15:21.757Z,38.76
2022-08-24T14:20:41.561Z,38.60
2022-08-24T14:25:44.757Z,38.13
2022-08-24T14:30:47.126Z,37.61
2022-08-24T14:36:14.881Z,37.66
2022-08-24T14:41:34.562Z,37.27
2022-08-24T14:47:04.525Z,37.85
2022-08-24T14:52:26.587Z,37.14
2022-08-24T14:57:56.754Z,37.12
2022-08-24T15:03:15.165Z,37.07
2022-08-24T15:08:33.121Z,37.20
2022-08-24T15:14:05.348Z,37.30
2022-08-24T15:19:27.390Z,37.22
2022-08-24T15:24:52.619Z,37.36
2022-08-24T15:29:56.043Z,36.82
2022-08-24T15:34:58.437Z,36.79
2022-08-24T15:40:01.777Z,36.52
2022-08-24T15:45:04.709Z,36.44
2022-08-24T15:50:19.243Z,36.66
2022-08-24T15:55:26.788Z,36.52
2022-08-24T16:00:55.517Z,36.78
2022-08-24T16:06:18.139Z,36.60
2022-08-24T16:11:27.983Z,36.05
2022-08-24T16:16:34.483Z,35.99
2022-08-24T16:21:51.251Z,35.57
2022-08-24T16:27:05.520Z,35.57
2022-08-24T16:32:23.096Z,34.98
2022-08-24T16:37:32.316Z,35.29
2022-08-24T16:42:34.988Z,35.31
2022-08-24T16:47:36.995Z,35.40
2022-08-24T16:52:38.908Z,35.43
2022-08-24T16:57:40.587Z,35.51
2022-08-24T17:02:42.867Z,35.22
2022-08-24T17:07:45.085Z,34.95
2022-08-24T17:12:47.114Z,35.16
2022-08-24T17:18:00.064Z,35.08
2022-08-24T17:23:02.136Z,34.27
2022-08-24T17:28:04.538Z,34.52
2022-08-24T17:33:06.219Z,34.08
2022-08-24T17:38:08.704Z,33.91
2022-08-24T17:43:10.592Z,33.87
2022-08-24T17:48:20.881Z,34.05
2022-08-24T17:53:22.568Z,34.39
2022-08-24T17:58:24.368Z,34.53
2022-08-24T18:03:26.175Z,34.75
2022-08-24T18:08:27.790Z,34.81
2022-08-24T18:13:29.624Z,34.70
2022-08-24T18:18:31.327Z,35.29
2022-08-24T18:23:33.120Z,35.63
2022-08-24T18:28:36.916Z,35.89
2022-08-24T18:33:38.581Z,36.08
2022-08-24T18:38:40.776Z,36.10
2022-08-24T18:43:42.670Z,36.48
2022-08-24T18:48:44.228Z,36.75
2022-08-24T18:53:46.391Z,37.11
2022-08-24T18:58:48.254Z,37.31
2022-08-24T19:03:50.465Z,37.44
2022-08-24T19:08:52.202Z,37.56
2022-08-24T19:13:53.856Z,37.71
2022-08-24T19:18:55.609Z,38.27
2022-08-24T19:23:58.530Z,38.14
2022-08-24T19:29:00.394Z,38.69
2022-08-24T19:34:03.446Z,38.55
2022-08-24T19:39:05.693Z,38.88
2022-08-24T19:44:27.562Z,39.39
2022-08-24T19:49:29.891Z,39.17
2022-08-24T19:54:35.749Z,39.72
2022-08-24T19:59:43.832Z,39.65
2022-08-24T20:04:45.617Z,40.14
2022-08-24T20:09:47.210Z,40.34
2022-08-24T20:14:49.087Z,40.34
2022-08-24T20:19:51.496Z,40.55
2022-08-24T20:24:53.562Z,40.61
2022-08-24T20:29:56.034Z,40.81
2022-08-24T20:34:58.064Z,41.31
2022-08-24T20:40:00.629Z,41.14
2022-08-24T20:45:02.525Z,41.64
2022-08-24T20:50:04.727Z,41.75
2022-08-24T20:55:06.848Z,42.16
2022-08-24T21:00:11.000Z,42.17
2022-08-24T21:05:13.191Z,42.05
2022-08-24T21:10:19.679Z,42.37
2022-08-24T21:15:23.591Z,42.78
2022-08-24T21:20:25.750Z,42.68
2022-08-24T21:25:27.578Z,42.89
2022-08-24T21:30:30.407Z,42.89
2022-08-24T21:35:32.639Z,42.92
2022-08-24T21:40:35.628Z,43.17
2022-08-24T21:45:37.452Z,43.54
2022-08-24T21:50:39.095Z,43.56
2022-08-24T21:55:41.912Z,43.41
2022-08-24T22:00:44.081Z,43.60
2022-08-24T22:05:45.856Z,43.77
2022-08-24T22:10:48.956Z,44.17
2022-08-24T22:15:50.747Z,44.08
2022-08-24T22:20:52.619Z,44.16
2022-08-24T22:25:54.566Z,44.44
2022-08-24T22:30:56.804Z,44.37
2022-08-24T22:35:58.627Z,44.59
2022-08-24T22:41:00.207Z,44.49
2022-08-24T22:46:01.846Z,44.78
2022-08-24T22:51:08.224Z,44.96
2022-08-24T22:56:27.674Z,45.07
2022-08-24T23:01:37.415Z,45.07
2022-08-24T23:06:39.389Z,45.35
2022-08-24T23:11:41.349Z,45.26
2022-08-24T23:16:45.092Z,45.46
2022-08-24T23:21:46.926Z,45.48
2022-08-24T23:26:49.445Z,45.79
2022-08-24T23:31:53.685Z,45.65
2022-08-24T23:36:55.789Z,45.94
2022-08-24T23:41:57.926Z,46.16
2022-08-24T23:47:00.500Z,46.28
2022-08-24T23:52:02.313Z,46.21
2022-08-24T23:57:09.053Z,46.44
